createdAt,value
2019-04-06T00:01:03.608Z,9.90
2019-04-06T00:03:32.992Z,9.90
2019-04-06T00:06:02.366Z,9.90
2019-04-06T00:08:31.738Z,9.90
2019-04-06T00:11:01.109Z,9.90
2019-04-06T00:13:49.839Z,9.90
2019-04-06T00:16:19.209Z,9.90
2019-04-06T00:18:48.824Z,9.90
2019-04-06T00:21:18.547Z,9.90
2019-04-06T00:23:47.956Z,9.90
2019-04-06T00:26:17.297Z,9.90
2019-04-06T00:28:46.956Z,9.90
2019-04-06T00:31:23.991Z,9.90
2019-04-06T00:33:53.361Z,9.90
2019-04-06T00:36:22.736Z,9.90
2019-04-06T00:38:52.113Z,9.90
2019-04-06T00:41:21.479Z,9.90
2019-04-06T00:43:50.863Z,9.90
2019-04-06T00:46:20.295Z,9.90
2019-04-06T00:48:50.566Z,9.90
2019-04-06T00:51:20.741Z,9.90
2019-04-06T00:53:50.365Z,9.90
2019-04-06T00:56:20.343Z,9.90
2019-04-06T00:58:50.505Z,9.90
2019-04-06T01:01:20.520Z,9.90
2019-04-06T01:03:50.507Z,9.90
2019-04-06T01:06:20.536Z,9.90
2019-04-06T01:08:50.680Z,9.90
2019-04-06T01:11:20.696Z,9.90
2019-04-06T01:13:50.775Z,9.80
2019-04-06T01:16:20.767Z,9.80
2019-04-06T01:18:50.838Z,9.80
2019-04-06T01:21:21.083Z,9.80
2019-04-06T01:23:51.116Z,9.80
2019-04-06T01:26:21.236Z,9.80
2019-04-06T01:28:51.208Z,9.80
2019-04-06T01:31:21.217Z,9.80
2019-04-06T01:33:50.577Z,9.80
2019-04-06T01:36:19.965Z,9.80
2019-04-06T01:38:49.334Z,9.80
2019-04-06T01:41:18.712Z,9.70
2019-04-06T01:43:48.083Z,9.80
2019-04-06T01:46:17.758Z,9.70
2019-04-06T01:48:47.152Z,9.70
2019-04-06T01:51:16.528Z,9.70
2019-04-06T01:53:45.916Z,9.70
2019-04-06T01:56:18.678Z,9.70
2019-04-06T01:58:46.403Z,9.70
2019-04-06T02:01:39.693Z,9.70
2019-04-06T02:04:09.068Z,9.70
2019-04-06T02:06:38.447Z,9.70
2019-04-06T02:09:07.817Z,9.70
2019-04-06T02:11:37.480Z,9.70
2019-04-06T02:14:07.086Z,9.70
2019-04-06T02:16:36.459Z,9.70
2019-04-06T02:19:05.827Z,9.70
2019-04-06T02:21:35.505Z,9.60
2019-04-06T02:24:04.876Z,9.60
2019-04-06T02:26:34.257Z,9.60
2019-04-06T02:29:04.478Z,9.60
2019-04-06T02:31:41.151Z,9.60
2019-04-06T02:34:12.443Z,9.60
2019-04-06T02:36:59.621Z,9.60
2019-04-06T02:39:30.643Z,9.60
2019-04-06T02:42:17.297Z,9.60
2019-04-06T02:44:46.665Z,9.50
2019-04-06T02:47:16.046Z,9.50
2019-04-06T02:49:45.497Z,9.50
2019-04-06T02:52:15.108Z,9.50
2019-04-06T02:54:44.475Z,9.50
2019-04-06T02:57:13.861Z,9.50
2019-04-06T02:59:43.446Z,9.50
2019-04-06T03:02:13.238Z,9.50
2019-04-06T03:04:42.604Z,9.50
2019-04-06T03:07:12.229Z,9.50
2019-04-06T03:09:42.076Z,9.50
2019-04-06T03:12:11.703Z,9.50
2019-04-06T03:14:44.224Z,9.50
2019-04-06T03:17:12.326Z,9.50
2019-04-06T03:19:41.695Z,9.50
2019-04-06T03:22:11.430Z,9.50
2019-04-06T03:24:40.789Z,9.40
2019-04-06T03:27:10.178Z,9.40
2019-04-06T03:29:39.552Z,9.40
2019-04-06T03:32:09.235Z,9.50
2019-04-06T03:34:38.602Z,9.50
2019-04-06T03:37:08.065Z,9.50
2019-04-06T03:39:37.439Z,9.50
2019-04-06T03:42:10.352Z,9.50
2019-04-06T03:44:38.165Z,9.40
2019-04-06T03:47:07.567Z,9.40
2019-04-06T03:49:37.076Z,9.40
2019-04-06T03:52:06.461Z,9.40
2019-04-06T03:54:36.218Z,9.40
2019-04-06T03:57:14.373Z,9.40
2019-04-06T03:59:36.929Z,9.40
2019-04-06T04:02:06.317Z,9.40
2019-04-06T04:04:35.682Z,9.40
2019-04-06T04:07:05.069Z,9.40
2019-04-06T04:09:34.436Z,9.40
2019-04-06T04:12:03.827Z,9.40
2019-04-06T04:14:34.323Z,9.40
2019-04-06T04:17:04.000Z,9.40
2019-04-06T04:19:33.435Z,9.40
2019-04-06T04:22:02.815Z,9.50
2019-04-06T04:24:32.429Z,9.50
2019-04-06T04:27:01.894Z,9.50
2019-04-06T04:29:31.520Z,9.50
2019-04-06T04:32:00.981Z,9.50
2019-04-06T04:34:30.358Z,9.50
2019-04-06T04:36:59.799Z,9.50
2019-04-06T04:39:29.434Z,9.50
2019-04-06T04:41:58.797Z,9.50
2019-04-06T04:44:28.464Z,9.50
2019-04-06T04:46:57.915Z,9.50
2019-04-06T04:49:27.292Z,9.50
2019-04-06T04:51:56.696Z,9.50
2019-04-06T04:54:26.350Z,9.50
2019-04-06T04:56:56.310Z,9.50
2019-04-06T04:59:25.629Z,9.50
2019-04-06T05:01:54.993Z,9.50
2019-04-06T05:04:24.382Z,9.50
2019-04-06T05:06:53.744Z,9.50
2019-04-06T05:09:24.267Z,9.50
2019-04-06T05:11:53.897Z,9.50
2019-04-06T05:15:09.042Z,9.50
2019-04-06T05:17:38.376Z,9.50
2019-04-06T05:20:11.674Z,9.50
2019-04-06T05:22:41.219Z,9.50
2019-04-06T05:25:12.361Z,9.50
2019-04-06T05:27:51.214Z,9.50
2019-04-06T05:30:13.478Z,9.50
2019-04-06T05:32:42.848Z,9.50
2019-04-06T05:35:12.365Z,9.50
2019-04-06T05:37:41.738Z,9.50
2019-04-06T05:40:11.698Z,9.50
2019-04-06T05:42:41.068Z,9.50
2019-04-06T05:45:10.681Z,9.60
2019-04-06T05:47:40.056Z,9.60
2019-04-06T05:50:09.756Z,9.60
2019-04-06T05:52:58.433Z,9.60
2019-04-06T05:55:27.840Z,9.60
2019-04-06T05:58:03.713Z,9.60
2019-04-06T06:00:28.887Z,9.70
2019-04-06T06:02:58.266Z,9.70
2019-04-06T06:05:27.667Z,9.70
2019-04-06T06:07:57.036Z,9.70
2019-04-06T06:10:26.623Z,9.80
2019-04-06T06:12:55.945Z,9.80
2019-04-06T06:15:25.351Z,9.80
2019-04-06T06:17:55.451Z,9.80
2019-04-06T06:20:24.834Z,9.80
2019-04-06T06:22:54.205Z,9.90
2019-04-06T06:25:23.583Z,9.90
2019-04-06T06:27:52.950Z,9.90
2019-04-06T06:30:22.467Z,10.00
2019-04-06T06:32:51.842Z,10.00
2019-04-06T06:35:21.256Z,10.00
2019-04-06T06:37:51.154Z,10.00
2019-04-06T06:40:21.227Z,10.10
2019-04-06T06:42:51.188Z,10.10
2019-04-06T06:45:21.234Z,10.10
2019-04-06T06:47:51.481Z,10.10
2019-04-06T06:50:20.866Z,10.20
2019-04-06T06:52:50.257Z,10.20
2019-04-06T06:55:19.634Z,10.20
2019-04-06T06:57:49.002Z,10.30
2019-04-06T07:00:18.888Z,10.40
2019-04-06T07:02:48.750Z,10.40
2019-04-06T07:05:18.411Z,10.60
2019-04-06T07:07:47.795Z,10.60
2019-04-06T07:10:17.381Z,10.80
2019-04-06T07:12:46.869Z,10.90
2019-04-06T07:15:16.280Z,11.00
2019-04-06T07:17:45.696Z,11.20
2019-04-06T07:20:15.539Z,11.30
2019-04-06T07:22:44.927Z,11.50
2019-04-06T07:25:15.186Z,11.70
2019-04-06T07:27:44.585Z,11.90
2019-04-06T07:30:15.079Z,12.00
2019-04-06T07:32:44.642Z,12.10
2019-04-06T07:35:14.339Z,12.10
2019-04-06T07:37:43.800Z,12.20
2019-04-06T07:40:13.685Z,12.20
2019-04-06T07:42:43.061Z,12.30
2019-04-06T07:45:13.388Z,12.30
2019-04-06T07:47:42.767Z,12.40
2019-04-06T07:50:12.328Z,12.50
2019-04-06T07:52:41.716Z,12.60
2019-04-06T07:55:11.296Z,12.70
2019-04-06T07:57:40.800Z,12.90
2019-04-06T08:00:11.748Z,13.10
2019-04-06T08:02:41.144Z,13.50
2019-04-06T08:05:10.719Z,13.80
2019-04-06T08:07:40.427Z,14.30
2019-04-06T08:10:10.693Z,14.80
2019-04-06T08:12:40.100Z,15.30
2019-04-06T08:15:10.068Z,15.80
2019-04-06T08:17:39.462Z,16.20
2019-04-06T08:20:09.408Z,16.50
2019-04-06T08:22:39.482Z,16.80
2019-04-06T08:25:09.107Z,16.90
2019-04-06T08:27:38.803Z,17.20
2019-04-06T08:30:11.166Z,17.40
2019-04-06T08:32:40.512Z,17.60
2019-04-06T08:35:10.794Z,17.80
2019-04-06T08:37:40.174Z,18.10
2019-04-06T08:40:09.780Z,18.20
2019-04-06T08:42:39.618Z,18.40
2019-04-06T08:45:09.498Z,18.40
2019-04-06T08:47:39.747Z,18.30
2019-04-06T08:50:09.282Z,18.30
2019-04-06T08:52:38.661Z,18.20
2019-04-06T08:55:08.540Z,18.20
2019-04-06T08:57:38.142Z,18.10
2019-04-06T09:00:09.176Z,18.00
2019-04-06T09:02:38.690Z,17.90
2019-04-06T09:05:08.664Z,17.80
2019-04-06T09:07:40.559Z,17.70
2019-04-06T09:10:10.921Z,17.60
2019-04-06T09:12:40.317Z,17.50
2019-04-06T09:15:10.736Z,17.50
2019-04-06T09:17:40.448Z,17.50
2019-04-06T09:20:10.783Z,17.40
2019-04-06T09:22:40.168Z,17.40
2019-04-06T09:25:09.740Z,17.30
2019-04-06T09:27:39.128Z,17.20
2019-04-06T09:30:09.311Z,17.10
2019-04-06T09:32:38.901Z,17.10
2019-04-06T09:35:08.457Z,17.00
2019-04-06T09:37:37.836Z,17.10
2019-04-06T09:40:08.877Z,17.10
2019-04-06T09:42:38.340Z,17.20
2019-04-06T09:45:20.083Z,17.10
2019-04-06T09:47:57.983Z,17.00
2019-04-06T09:50:44.974Z,17.00
2019-04-06T09:53:16.002Z,17.10
2019-04-06T09:55:47.288Z,17.10
2019-04-06T09:58:30.063Z,17.20
2019-04-06T10:01:17.503Z,17.30
2019-04-06T10:03:59.668Z,17.40
2019-04-06T10:06:36.718Z,17.40
2019-04-06T10:09:10.724Z,17.60
2019-04-06T10:11:51.132Z,17.70
2019-04-06T10:14:30.852Z,17.90
2019-04-06T10:17:05.111Z,18.10
2019-04-06T10:19:46.018Z,18.30
2019-04-06T10:22:32.116Z,18.30
2019-04-06T10:25:05.791Z,18.20
2019-04-06T10:27:52.966Z,18.20
2019-04-06T10:30:24.188Z,18.30
2019-04-06T10:33:04.375Z,18.30
2019-04-06T10:35:52.197Z,18.30
2019-04-06T10:38:25.828Z,18.30
2019-04-06T10:41:08.885Z,18.30
2019-04-06T10:43:42.628Z,18.20
2019-04-06T10:46:40.992Z,18.10
2019-04-06T10:49:12.021Z,18.20
2019-04-06T10:51:55.662Z,18.10
2019-04-06T10:54:26.697Z,18.10
2019-04-06T10:57:03.663Z,18.00
2019-04-06T10:59:40.723Z,18.00
2019-04-06T11:02:12.059Z,18.00
2019-04-06T11:04:43.080Z,18.00
2019-04-06T11:07:23.533Z,18.00
2019-04-06T11:10:06.725Z,18.00
2019-04-06T11:12:37.719Z,18.10
2019-04-06T11:15:18.583Z,18.10
2019-04-06T11:17:58.346Z,18.00
2019-04-06T11:20:41.118Z,18.00
2019-04-06T11:23:27.239Z,17.90
2019-04-06T11:26:04.270Z,17.90
2019-04-06T11:28:35.292Z,17.80
2019-04-06T11:31:12.593Z,17.70
2019-04-06T11:33:43.615Z,17.70
2019-04-06T11:36:14.813Z,17.70
2019-04-06T11:39:01.978Z,17.70
2019-04-06T11:41:33.174Z,17.70
2019-04-06T11:44:09.833Z,17.70
2019-04-06T11:46:40.901Z,17.70
2019-04-06T11:49:12.428Z,17.70
2019-04-06T11:51:55.581Z,17.70
2019-04-06T11:54:35.489Z,17.70
2019-04-06T11:57:15.597Z,17.80
2019-04-06T12:00:02.555Z,17.80
2019-04-06T12:02:42.656Z,17.80
2019-04-06T12:05:25.252Z,17.80
2019-04-06T12:08:08.328Z,17.80
2019-04-06T12:10:51.384Z,17.70
2019-04-06T12:13:25.644Z,17.70
2019-04-06T12:15:59.401Z,17.80
2019-04-06T12:18:45.518Z,17.70
2019-04-06T12:21:31.406Z,17.60
2019-04-06T12:24:02.591Z,17.60
2019-04-06T12:26:48.916Z,17.50
2019-04-06T12:29:22.922Z,17.50
2019-04-06T12:32:03.594Z,17.50
2019-04-06T12:34:34.896Z,17.50
2019-04-06T12:37:14.593Z,17.50
2019-04-06T12:39:53.435Z,17.50
2019-04-06T12:42:38.663Z,17.50
2019-04-06T12:45:26.108Z,17.50
2019-04-06T12:48:11.884Z,17.60
2019-04-06T12:50:42.885Z,17.60
2019-04-06T12:53:26.247Z,17.60
2019-04-06T12:56:00.474Z,17.50
2019-04-06T12:58:34.747Z,17.60
2019-04-06T13:01:09.067Z,17.60
2019-04-06T13:03:57.842Z,17.60
2019-04-06T13:06:45.141Z,17.70
2019-04-06T13:09:16.201Z,17.80
2019-04-06T13:11:49.911Z,17.90
2019-04-06T13:14:26.661Z,18.00
2019-04-06T13:17:00.917Z,18.00
2019-04-06T13:19:35.513Z,18.00
2019-04-06T13:22:06.889Z,18.00
2019-04-06T13:24:46.881Z,18.00
2019-04-06T13:27:20.436Z,18.00
2019-04-06T13:29:54.432Z,18.00
2019-04-06T13:32:43.308Z,18.00
2019-04-06T13:35:14.409Z,18.00
2019-04-06T13:38:01.468Z,18.00
2019-04-06T13:40:44.717Z,18.00
2019-04-06T13:43:30.854Z,18.00
2019-04-06T13:46:07.947Z,18.10
2019-04-06T13:48:39.223Z,18.20
2019-04-06T13:51:13.532Z,18.20
2019-04-06T13:54:03.922Z,18.20
2019-04-06T13:56:51.648Z,18.20
2019-04-06T13:59:22.711Z,18.20
2019-04-06T14:02:10.588Z,18.30
2019-04-06T14:04:44.292Z,18.20
2019-04-06T14:07:15.388Z,18.20
2019-04-06T14:09:49.371Z,18.20
2019-04-06T14:12:32.055Z,18.20
2019-04-06T14:15:14.765Z,18.20
2019-04-06T14:18:02.666Z,18.30
2019-04-06T14:20:36.389Z,18.30
2019-04-06T14:23:24.384Z,18.30
2019-04-06T14:26:11.599Z,18.30
2019-04-06T14:28:58.376Z,18.30
2019-04-06T14:31:45.303Z,18.30
2019-04-06T14:34:16.333Z,18.30
2019-04-06T14:37:03.262Z,18.30
2019-04-06T14:39:34.329Z,18.40
2019-04-06T14:42:12.659Z,18.30
2019-04-06T14:45:00.180Z,18.40
2019-04-06T14:47:40.428Z,18.40
2019-04-06T14:50:12.031Z,18.40
2019-04-06T14:52:59.422Z,18.50
2019-04-06T14:55:46.389Z,18.50
2019-04-06T14:58:20.403Z,18.50
2019-04-06T15:01:03.375Z,18.50
2019-04-06T15:03:34.938Z,18.50
2019-04-06T15:06:11.667Z,18.50
2019-04-06T15:09:01.098Z,18.40
2019-04-06T15:11:37.754Z,18.40
2019-04-06T15:14:17.273Z,18.40
2019-04-06T15:16:53.745Z,18.30
2019-04-06T15:19:24.837Z,18.20
2019-04-06T15:21:56.089Z,18.20
2019-04-06T15:24:32.749Z,18.20
2019-04-06T15:27:03.757Z,18.20
2019-04-06T15:29:35.311Z,18.20
2019-04-06T15:32:09.096Z,18.30
2019-04-06T15:34:46.046Z,18.20
2019-04-06T15:37:19.834Z,18.30
2019-04-06T15:39:59.876Z,18.30
2019-04-06T15:42:36.972Z,18.30
2019-04-06T15:45:23.898Z,18.30
2019-04-06T15:47:57.350Z,18.30
2019-04-06T15:50:31.422Z,18.20
2019-04-06T15:53:05.223Z,18.20
2019-04-06T15:55:36.238Z,18.10
2019-04-06T15:58:07.288Z,18.10
2019-04-06T16:00:41.001Z,18.00
2019-04-06T16:03:23.813Z,17.90
2019-04-06T16:05:57.373Z,17.90
2019-04-06T16:08:39.971Z,17.90
2019-04-06T16:11:10.983Z,17.80
2019-04-06T16:13:50.427Z,17.80
2019-04-06T16:16:21.442Z,17.70
2019-04-06T16:19:00.946Z,17.60
2019-04-06T16:21:34.701Z,17.60
2019-04-06T16:24:11.488Z,17.50
2019-04-06T16:26:48.769Z,17.50
2019-04-06T16:29:25.954Z,17.40
2019-04-06T16:32:12.370Z,17.40
2019-04-06T16:34:38.692Z,17.40
2019-04-06T16:37:27.576Z,17.30
2019-04-06T16:39:58.630Z,17.20
2019-04-06T16:42:35.686Z,17.20
2019-04-06T16:45:08.426Z,17.10
2019-04-06T16:47:39.695Z,17.10
2019-04-06T16:50:10.781Z,17.00
2019-04-06T16:52:45.173Z,17.00
2019-04-06T16:55:24.889Z,16.90
2019-04-06T16:57:59.248Z,16.90
2019-04-06T17:00:33.067Z,16.80
2019-04-06T17:03:07.234Z,16.70
2019-04-06T17:05:38.388Z,16.70
2019-04-06T17:08:13.513Z,16.60
2019-04-06T17:10:46.610Z,16.60
2019-04-06T17:13:34.365Z,16.50
2019-04-06T17:16:14.770Z,16.50
2019-04-06T17:18:48.481Z,16.40
2019-04-06T17:21:19.486Z,16.20
2019-04-06T17:23:50.511Z,16.20
2019-04-06T17:26:21.904Z,16.20
2019-04-06T17:29:04.894Z,16.20
2019-04-06T17:31:52.608Z,16.20
2019-04-06T17:34:30.352Z,16.10
2019-04-06T17:37:04.418Z,16.10
2019-04-06T17:39:38.369Z,16.10
2019-04-06T17:42:15.715Z,16.00
2019-04-06T17:45:03.162Z,16.00
2019-04-06T17:47:37.164Z,15.90
2019-04-06T17:50:09.448Z,15.80
2019-04-06T17:52:46.161Z,15.80
2019-04-06T17:55:17.183Z,15.70
2019-04-06T17:57:51.309Z,15.60
2019-04-06T18:00:39.470Z,15.60
2019-04-06T18:03:25.263Z,15.50
2019-04-06T18:06:13.993Z,15.40
2019-04-06T18:08:45.389Z,15.30
2019-04-06T18:11:21.907Z,15.30
2019-04-06T18:13:52.183Z,15.20
2019-04-06T18:16:23.345Z,15.10
2019-04-06T18:18:52.858Z,15.10
2019-04-06T18:21:22.288Z,15.00
2019-04-06T18:23:51.643Z,15.00
2019-04-06T18:26:21.089Z,14.90
2019-04-06T18:28:50.902Z,14.90
2019-04-06T18:31:21.862Z,14.90
2019-04-06T18:33:51.250Z,14.90
2019-04-06T18:36:22.267Z,14.80
2019-04-06T18:38:53.640Z,14.80
2019-04-06T18:41:23.916Z,14.80
2019-04-06T18:43:53.544Z,14.80
2019-04-06T18:46:22.930Z,14.70
2019-04-06T18:48:52.321Z,14.70
2019-04-06T18:51:21.700Z,14.70
2019-04-06T18:53:51.396Z,14.70
2019-04-06T18:56:21.013Z,14.60
2019-04-06T18:58:50.412Z,14.60
2019-04-06T19:01:20.318Z,14.60
2019-04-06T19:03:49.754Z,14.50
2019-04-06T19:06:19.125Z,14.40
2019-04-06T19:08:48.508Z,14.40
2019-04-06T19:11:17.884Z,14.30
2019-04-06T19:13:47.288Z,14.20
2019-04-06T19:16:17.707Z,14.20
2019-04-06T19:18:47.701Z,14.10
2019-04-06T19:21:17.542Z,14.00
2019-04-06T19:23:47.206Z,14.00
2019-04-06T19:26:17.140Z,13.90
2019-04-06T19:28:46.951Z,13.80
2019-04-06T19:31:16.917Z,13.80
2019-04-06T19:33:46.338Z,13.70
2019-04-06T19:36:16.289Z,13.60
2019-04-06T19:38:45.696Z,13.60
2019-04-06T19:41:15.090Z,13.50
2019-04-06T19:43:45.295Z,13.40
2019-04-06T19:46:14.651Z,13.40
2019-04-06T19:48:44.031Z,13.30
2019-04-06T19:51:13.422Z,13.30
2019-04-06T19:53:42.793Z,13.30
2019-04-06T19:56:12.912Z,13.20
2019-04-06T19:58:42.628Z,13.20
2019-04-06T20:01:12.477Z,13.10
2019-04-06T20:03:42.185Z,13.10
2019-04-06T20:06:11.650Z,13.10
2019-04-06T20:08:41.165Z,13.10
2019-04-06T20:11:11.021Z,13.10
2019-04-06T20:13:40.356Z,13.10
2019-04-06T20:16:09.876Z,13.20
2019-04-06T20:18:39.980Z,13.20
2019-04-06T20:21:09.795Z,13.20
2019-04-06T20:23:40.117Z,13.20
2019-04-06T20:26:09.579Z,13.30
2019-04-06T20:28:39.040Z,13.30
2019-04-06T20:31:08.412Z,13.30
2019-04-06T20:33:48.177Z,13.30
2019-04-06T20:36:10.355Z,13.40
2019-04-06T20:38:40.653Z,13.40
2019-04-06T20:41:10.111Z,13.40
2019-04-06T20:43:39.593Z,13.40
2019-04-06T20:46:09.749Z,13.40
2019-04-06T20:48:40.083Z,13.40
2019-04-06T20:51:09.668Z,13.30
2019-04-06T20:53:39.779Z,13.30
2019-04-06T20:56:09.915Z,13.40
2019-04-06T20:58:40.191Z,13.30
2019-04-06T21:01:11.159Z,13.30
2019-04-06T21:03:40.576Z,13.30
2019-04-06T21:06:10.296Z,13.30
2019-04-06T21:08:40.127Z,13.20
2019-04-06T21:11:09.539Z,13.20
2019-04-06T21:13:39.078Z,13.20
2019-04-06T21:16:08.826Z,13.10
2019-04-06T21:18:38.195Z,13.10
2019-04-06T21:21:07.571Z,13.10
2019-04-06T21:23:37.389Z,13.10
2019-04-06T21:26:07.118Z,13.00
2019-04-06T21:28:36.536Z,13.00
2019-04-06T21:31:05.882Z,12.90
2019-04-06T21:33:35.273Z,12.90
2019-04-06T21:36:04.826Z,12.90
2019-04-06T21:38:34.367Z,12.80
2019-04-06T21:41:03.880Z,12.80
2019-04-06T21:43:33.320Z,12.70
2019-04-06T21:46:02.702Z,12.70
2019-04-06T21:48:32.436Z,12.70
2019-04-06T21:51:01.911Z,12.60
2019-04-06T21:53:31.307Z,12.60
2019-04-06T21:56:04.909Z,12.50
2019-04-06T21:58:32.404Z,12.50
2019-04-06T22:01:02.677Z,12.40
2019-04-06T22:03:32.649Z,12.30
2019-04-06T22:06:02.487Z,12.30
2019-04-06T22:08:32.281Z,12.20
2019-04-06T22:11:01.745Z,12.20
2019-04-06T22:13:31.792Z,12.10
2019-04-06T22:16:01.323Z,12.10
2019-04-06T22:18:31.515Z,12.00
2019-04-06T22:21:01.193Z,12.00
2019-04-06T22:23:41.243Z,12.00
2019-04-06T22:26:01.701Z,11.90
2019-04-06T22:28:31.177Z,11.90
2019-04-06T22:31:00.763Z,11.80
2019-04-06T22:33:30.192Z,11.80
2019-04-06T22:35:59.565Z,11.80
2019-04-06T22:38:28.967Z,11.70
2019-04-06T22:40:58.508Z,11.70
2019-04-06T22:43:28.291Z,11.60
2019-04-06T22:45:57.918Z,11.60
2019-04-06T22:48:28.027Z,11.60
2019-04-06T22:50:57.840Z,11.50
2019-04-06T22:53:27.329Z,11.50
2019-04-06T22:55:57.247Z,11.50
2019-04-06T22:58:26.999Z,11.50
2019-04-06T23:01:03.697Z,11.40
2019-04-06T23:03:34.735Z,11.40
2019-04-06T23:06:21.981Z,11.40
2019-04-06T23:08:51.447Z,11.40
2019-04-06T23:11:20.817Z,11.30
2019-04-06T23:13:50.440Z,11.30
2019-04-06T23:16:19.809Z,11.30
2019-04-06T23:18:49.308Z,11.30
2019-04-06T23:21:19.061Z,11.30
2019-04-06T23:23:48.858Z,11.20
2019-04-06T23:26:18.809Z,11.20
2019-04-06T23:28:49.185Z,11.20
2019-04-06T23:31:18.559Z,11.20
2019-04-06T23:33:47.941Z,11.20
2019-04-06T23:36:17.324Z,11.10
2019-04-06T23:38:46.707Z,11.10
2019-04-06T23:41:16.244Z,11.10
2019-04-06T23:43:45.599Z,11.10
2019-04-06T23:46:14.981Z,11.10
2019-04-06T23:48:44.349Z,11.00
2019-04-06T23:51:14.215Z,11.00
2019-04-06T23:53:43.607Z,11.00
2019-04-06T23:56:13.664Z,11.00
2019-04-06T23:58:43.181Z,11.00
